Home   Weather   Finland   Pori   Past weeks
Flag for Finland

Past Weather in Pori, Finland — Yesterday and Last 2 Weeks

Currently: 68 °F. Passing clouds. (Weather station: Pori Airport, Finland). See more current weather

Past Weather in Pori — Graph

°F

Pori Temperature Yesterday

Maximum temperature yesterday: 70 °F (at 11:50 am)
Minimum temperature yesterday: 46 °F (at 1:20 am)
Average temperature yesterday: 61 °F

High & Low Weather Summary for the Past Weeks

 TemperatureHumidityPressure
High72 °F (May 19, 12:50 pm)100% (May 9, 11:50 pm)30.39 "Hg (May 9, 11:50 pm)
Low28 °F (May 12, 5:20 am)19% (May 8, 12:50 pm)29.83 "Hg (May 19, 12:20 pm)
Average50 °F56%30.10 "Hg
* Reported May 4 1:20 pm — May 19 1:20 pm, Pori. Weather by CustomWeather, © 2024

Note: Actual official high and low records may vary slightly from our data, if they occured in-between our weather recording intervals... More about our weather records

Pori Weather History for the Previous 24 Hours

Scroll right to see more
 ConditionsComfort  
Time TempWeatherWind HumidityBarometerVisibility
1:20 pm
Sun, May 19
72 °FPassing clouds.15 mph41%29.83 "HgN/A
12:50 pm72 °FPassing clouds.13 mph41%29.83 "HgN/A
12:20 pm70 °FSunny.14 mph40%29.83 "Hg10 mi
11:50 am70 °FPassing clouds.7 mph43%29.86 "HgN/A
11:20 am68 °FPassing clouds.8 mph43%29.86 "HgN/A
10:50 am68 °FPassing clouds.8 mph43%29.86 "HgN/A
10:20 am64 °FPassing clouds.8 mph49%29.86 "HgN/A
9:50 am64 °FPassing clouds.8 mph52%29.86 "HgN/A
9:20 am63 °FPassing clouds.8 mph52%29.89 "HgN/A
8:50 am63 °FPassing clouds.9 mph52%29.89 "HgN/A
8:20 am63 °FPassing clouds.8 mph52%29.86 "HgN/A
7:50 am61 °FPassing clouds.6 mph55%29.86 "HgN/A
7:20 am59 °FSunny.5 mph59%29.89 "Hg10 mi
6:50 am57 °FSunny.6 mph63%29.89 "Hg10 mi
6:20 am55 °FSunny.6 mph63%29.89 "Hg10 mi
5:50 am54 °FSunny.5 mph63%29.89 "Hg10 mi
5:20 am54 °FSunny.6 mph63%29.89 "Hg10 mi
4:50 am52 °FSunny.6 mph67%29.89 "Hg10 mi
4:20 am52 °FClear.7 mph62%29.89 "Hg10 mi
3:50 am54 °FClear.7 mph58%29.89 "Hg10 mi
3:20 am54 °FClear.7 mph58%29.92 "Hg10 mi
2:50 am54 °FClear.7 mph58%29.92 "Hg10 mi
2:20 am55 °FClear.7 mph59%29.92 "Hg10 mi
1:50 am55 °FClear.7 mph63%29.92 "Hg10 mi
1:20 am55 °FClear.7 mph63%29.92 "Hg10 mi
12:50 am57 °FClear.7 mph59%29.92 "Hg10 mi
12:20 am57 °FClear.6 mph59%29.95 "Hg10 mi
11:20 pm
Sat, May 18
59 °FClear.6 mph55%29.95 "Hg10 mi
10:50 pm61 °FClear.6 mph48%29.95 "Hg10 mi
10:20 pm63 °FSunny.5 mph45%29.95 "Hg10 mi
9:50 pm63 °FSunny.3 mph49%29.95 "Hg10 mi
9:20 pm66 °FSunny.3 mph40%29.95 "Hg10 mi
8:50 pm66 °FPassing clouds.5 mph37%29.95 "HgN/A
8:20 pm68 °FPassing clouds.7 mph38%29.98 "HgN/A
7:50 pm68 °FPassing clouds.6 mph38%29.98 "HgN/A
7:20 pm70 °FPassing clouds.9 mph35%29.98 "HgN/A
6:50 pm70 °FPassing clouds.8 mph35%29.98 "HgN/A
6:20 pm70 °FPassing clouds.10 mph33%30.01 "HgN/A
5:50 pm70 °FSunny.10 mph33%30.01 "Hg10 mi
5:20 pm70 °FPassing clouds.13 mph33%30.04 "HgN/A
4:20 pm70 °FPassing clouds.10 mph31%30.04 "HgN/A
3:50 pm68 °FPassing clouds.12 mph33%30.07 "HgN/A
3:20 pm68 °FPassing clouds.12 mph33%30.07 "HgN/A
2:50 pm70 °FPassing clouds.12 mph31%30.07 "HgN/A
2:20 pm70 °FSunny.10 mph29%30.07 "Hg10 mi
Weather by CustomWeather, © 2024

See weather overview